Flight Track Log - Related Links

Times and Time Zones

All times are in EDT time to prevent confusion due to time zone crossing. See the N3281S flight status page for this flight to view local times or setup timezone preferences in your user account.

Time Position Orientation Groundspeed Altitude Reporting Facility
EDT Latitude Longitude Course Direction KTS MPH feet Rate Location/Type
Sun 01:39:44 PM 41.3589 -78.1686 260° West 125 144 5,000  Level Cleveland Center
Sun 01:40:46 PM 41.3531 -78.2136 260° West 125 144 4,900 -97 Descending Cleveland Center
Sun 01:41:48 PM 41.3458 -78.2597 258° West 125 144 4,800 -145 Descending Cleveland Center
Sun 01:42:50 PM 41.3403 -78.3050 261° West 125 144 4,600 -97 Descending Cleveland Center
Sun 01:43:52 PM 41.3336 -78.3503 259° West 125 144 4,600 48 Level Cleveland Center
Sun 01:44:54 PM 41.3264 -78.3950 258° West 125 144 4,700  Climbing Cleveland Center
Sun 01:45:55 PM 41.3181 -78.4475 258° West 125 144 4,600  Descending Cleveland Center
Sun 01:46:57 PM 41.3144 -78.4919 264° West 125 144 4,700 96 Climbing Cleveland Center
Sun 01:48:00 PM 41.3081 -78.5347 259° West 124 143 4,800 97 Climbing Cleveland Center
Sun 01:49:01 PM 41.2997 -78.5772 255° West 122 140 4,900 98 Climbing Cleveland Center
Sun 01:50:03 PM 41.2922 -78.6208 257° West 122 140 5,000 97 Climbing Cleveland Center
Sun 01:51:05 PM 41.2853 -78.6733 260° West 122 140 5,100 97 Climbing Cleveland Center
Sun 01:52:07 PM 41.2769 -78.7178 256° West 123 142 5,200 48 Climbing Cleveland Center
Sun 01:53:10 PM 41.2711 -78.7617 260° West 122 140 5,200 -48 Level Cleveland Center
Sun 01:54:12 PM 41.2633 -78.8067 257° West 123 142 5,100  Descending Cleveland Center
Sun 01:55:14 PM 41.2578 -78.8511 261° West 123 142 5,200  Climbing Cleveland Center
Sun 01:56:16 PM 41.2481 -78.9047 256° West 123 142 5,100 48 Descending Cleveland Center
Sun 01:57:18 PM 41.2419 -78.9494 260° West 123 142 5,300 194 Climbing Cleveland Center
Sun 01:58:20 PM 41.2342 -78.9928 257° West 123 142 5,500 -48 Climbing Cleveland Center
Sun 01:59:22 PM 41.2250 -79.0372 255° West 123 142 5,200 -194 Descending Cleveland Center
Sun 02:00:24 PM 41.2200 -79.0833 262° West 124 143 5,100 -97 Descending Cleveland Center
Sun 02:01:26 PM 41.2139 -79.1381 262° West 124 143 5,000 -48 Descending Cleveland Center
Sun 02:02:28 PM 41.2081 -79.1817 260° West 124 143 5,000 -48 Level Cleveland Center
Sun 02:03:30 PM 41.2017 -79.2267 259° West 124 143 4,900  Descending Cleveland Center
Sun 02:04:32 PM 41.1889 -79.2703 249° West 124 143 5,000  Climbing Cleveland Center
Sun 02:05:34 PM 41.1781 -79.3206 254° West 125 144 4,900 -48 Descending Cleveland Center
Sun 02:06:37 PM 41.1733 -79.3669 262° West 126 145 4,900  Level Cleveland Center
Sun 02:07:39 PM 41.1653 -79.4125 257° West 126 145 4,900  Level Cleveland Center
Sun 02:08:41 PM 41.1569 -79.4564 256° West 126 145 4,900 96 Level Cleveland Center
Sun 02:09:44 PM 41.1472 -79.5106 257° West 126 145 5,100 192 Climbing Cleveland Center
Sun 02:10:46 PM 41.1372 -79.5531 253° West 125 144 5,300 97 Climbing Cleveland Center
Sun 02:11:48 PM 41.1308 -79.5950 259° West 121 139 5,300 96 Level Cleveland Center
Sun 02:12:51 PM 41.1228 -79.6406 257° West 123 142 5,500 96 Climbing Cleveland Center
Sun 02:13:53 PM 41.1172 -79.6853 261° West 123 142 5,500  Level Cleveland Center
Sun 02:14:55 PM 41.1097 -79.7300 257° West 123 142 5,500 -97 Level Cleveland Center
Sun 02:15:57 PM 41.1008 -79.7842 258° West 124 143 5,300 -290 Descending Cleveland Center
Sun 02:16:59 PM 41.0928 -79.8333 258° West 132 152 4,900 -336 Descending Cleveland Center
Sun 02:18:02 PM 41.0872 -79.8833 262° West 134 154 4,600 -240 Descending Cleveland Center
Sun 02:19:04 PM 41.0828 -79.9331 263° West 135 155 4,400 -194 Descending Cleveland Center
Sun 02:20:06 PM 41.0747 -79.9828 258° West 135 155 4,200 -145 Descending Cleveland Center
Sun 02:21:08 PM 41.0669 -80.0408 260° West 135 155 4,100 -97 Descending Cleveland Center
Sun 02:22:10 PM 41.0600 -80.0869 259° West 132 152 4,000 -194 Descending Cleveland Center
Sun 02:23:12 PM 41.0558 -80.1333 263° West 131 151 3,700 -242 Descending Cleveland Center
Sun 02:24:14 PM 41.0503 -80.1808 261° West 125 144 3,500 -194 Descending Cleveland Center

Login

Don't have an account? Register now (free) for customized features, flight alerts, and more!